Time;durP1;ratioP1;P1;durP2;ratioP2;P2;SDS_P1;SDS_P2;PMS_P1;PMS_P2;Temp;Humidity;BMP_temperature;BMP_pressure;BME280_temperature;BME280_humidity;BME280_pressure;Samples;Min_cycle;Max_cycle;Signal;HPM_P1;HPM_P2
2024/01/05 00:01:07;;;;;;;0.65;0.65;;;;;;;4.64;100.00;94307.94;5092718;28;20206;-74
2024/01/05 00:03:34;;;;;;;1.65;1.17;;;;;;;4.88;100.00;94305.03;5091343;28;20245;-74
2024/01/05 00:06:01;;;;;;;0.20;0.20;;;;;;;5.00;100.00;94304.53;5092554;28;20210;-75
2024/01/05 00:08:28;;;;;;;0.75;0.75;;;;;;;5.07;100.00;94321.00;5079878;28;20297;-74
2024/01/05 00:10:54;;;;;;;1.08;1.02;;;;;;;5.10;100.00;94306.19;5092411;28;20245;-74
2024/01/05 00:13:21;;;;;;;0.35;0.35;;;;;;;5.12;100.00;94312.06;5091587;28;20553;-75
2024/01/05 00:15:48;;;;;;;0.20;0.20;;;;;;;5.04;100.00;94315.47;5091852;28;20293;-75
2024/01/05 00:18:16;;;;;;;0.40;0.40;;;;;;;4.93;100.00;94320.22;5092361;28;20269;-74
2024/01/05 00:20:43;;;;;;;0.20;0.20;;;;;;;4.94;100.00;94322.59;5092341;28;20665;-75
2024/01/05 00:23:10;;;;;;;0.57;0.45;;;;;;;4.76;100.00;94326.22;5086293;28;20762;-75
2024/01/05 00:25:37;;;;;;;0.20;0.20;;;;;;;4.61;100.00;94323.81;5092776;28;20635;-76
2024/01/05 00:28:04;;;;;;;4.85;3.08;;;;;;;4.62;100.00;94331.56;5089069;28;20214;-76
2024/01/05 00:30:31;;;;;;;4.60;3.05;;;;;;;4.74;100.00;94316.88;5092405;28;20209;-76
2024/01/05 00:32:58;;;;;;;4.53;2.58;;;;;;;4.50;100.00;94325.09;5086975;28;20210;-76
2024/01/05 00:35:26;;;;;;;3.67;2.67;;;;;;;4.51;100.00;94332.06;5085021;28;20263;-75
2024/01/05 00:37:53;;;;;;;3.38;1.90;;;;;;;4.63;100.00;94327.00;5088581;28;20221;-76
2024/01/05 00:40:20;;;;;;;5.35;2.85;;;;;;;4.67;100.00;94327.97;5084891;28;20554;-73
2024/01/05 00:42:47;;;;;;;4.30;2.67;;;;;;;4.59;100.00;94331.38;5090531;28;20230;-78
2024/01/05 00:45:14;;;;;;;4.45;2.50;;;;;;;4.38;100.00;94320.19;5085305;28;20569;-76
2024/01/05 00:47:40;;;;;;;0.20;0.20;;;;;;;4.54;100.00;94344.84;5091887;28;20214;-74
2024/01/05 00:50:08;;;;;;;0.30;0.30;;;;;;;4.44;100.00;94339.69;5091436;28;20224;-74
2024/01/05 00:52:36;;;;;;;0.40;0.40;;;;;;;4.39;100.00;94342.44;5092037;28;20198;-76
2024/01/05 00:55:03;;;;;;;0.20;0.20;;;;;;;4.45;100.00;94346.63;5075166;28;20217;-75
2024/01/05 00:57:31;;;;;;;0.47;0.47;;;;;;;4.47;100.00;94355.19;5091755;28;20217;-75
2024/01/05 00:59:58;;;;;;;0.65;0.65;;;;;;;4.48;100.00;94338.00;5092000;28;20260;-74
2024/01/05 01:02:25;;;;;;;0.45;0.45;;;;;;;4.52;100.00;94341.66;5092292;28;20309;-76
2024/01/05 01:04:51;;;;;;;0.55;0.55;;;;;;;4.51;100.00;94340.09;5095243;28;20206;-76
2024/01/05 01:07:18;;;;;;;0.25;0.25;;;;;;;4.71;100.00;94342.38;5096486;28;20614;-76
2024/01/05 01:09:47;;;;;;;0.20;0.20;;;;;;;4.63;100.00;94337.72;5096056;28;20598;-74
2024/01/05 01:12:14;;;;;;;0.20;0.20;;;;;;;4.72;100.00;94346.66;5096227;28;20662;-74
2024/01/05 01:14:40;;;;;;;0.20;0.20;;;;;;;4.80;100.00;94337.91;5089473;28;20217;-73
2024/01/05 01:17:07;;;;;;;0.85;0.85;;;;;;;4.51;100.00;94335.50;5095894;28;20225;-74
2024/01/05 01:19:34;;;;;;;0.50;0.50;;;;;;;4.62;100.00;94346.88;5085334;28;20199;-74
2024/01/05 01:22:01;;;;;;;0.30;0.30;;;;;;;4.50;100.00;94352.72;5095263;28;20209;-75
2024/01/05 01:24:28;;;;;;;1.95;1.10;;;;;;;4.41;100.00;94356.34;5095813;28;20203;-72
2024/01/05 01:26:56;;;;;;;0.32;0.32;;;;;;;4.33;100.00;94355.16;5096083;28;20203;-74
2024/01/05 01:29:24;;;;;;;0.57;0.38;;;;;;;4.36;100.00;94351.09;5095601;28;20209;-77
2024/01/05 01:31:51;;;;;;;0.30;0.30;;;;;;;4.47;100.00;94352.50;5094803;28;20210;-73
2024/01/05 01:34:18;;;;;;;0.47;0.47;;;;;;;4.43;100.00;94348.81;5095336;28;20235;-76
2024/01/05 01:36:45;;;;;;;0.70;0.55;;;;;;;4.65;100.00;94354.28;5086261;28;20198;-74
2024/01/05 01:39:12;;;;;;;1.50;1.17;;;;;;;4.53;100.00;94354.78;5095940;28;20210;-74
2024/01/05 01:41:38;;;;;;;0.43;0.43;;;;;;;4.53;100.00;94354.00;5095140;28;20206;-74
2024/01/05 01:44:06;;;;;;;0.25;0.25;;;;;;;4.52;100.00;94369.28;5095164;28;20245;-75
2024/01/05 01:46:33;;;;;;;0.20;0.20;;;;;;;4.34;100.00;94366.69;5094585;28;20205;-74
2024/01/05 01:49:00;;;;;;;2.58;1.92;;;;;;;4.41;100.00;94361.72;5095566;28;20268;-75
2024/01/05 01:51:31;;;;;;;3.92;1.90;;;;;;;4.28;100.00;94369.44;5093858;28;20210;-74
2024/01/05 01:53:58;;;;;;;3.83;2.28;;;;;;;4.44;100.00;94361.94;5089846;28;20643;-74
2024/01/05 01:56:26;;;;;;;0.30;0.30;;;;;;;4.45;100.00;94371.56;5075267;28;20273;-76
2024/01/05 01:58:53;;;;;;;0.40;0.40;;;;;;;4.24;100.00;94376.47;5094350;28;20210;-76
2024/01/05 02:01:21;;;;;;;0.40;0.40;;;;;;;4.31;100.00;94378.00;5092452;28;20221;-74
2024/01/05 02:03:48;;;;;;;0.20;0.20;;;;;;;4.20;100.00;94383.53;5095071;28;20279;-77
2024/01/05 02:06:15;;;;;;;0.45;0.45;;;;;;;4.10;100.00;94389.03;5095221;28;20604;-76
2024/01/05 02:08:44;;;;;;;1.38;0.68;;;;;;;4.18;100.00;94385.69;5081375;28;20207;-76
2024/01/05 02:11:10;;;;;;;0.25;0.25;;;;;;;3.89;100.00;94410.00;5090169;28;20695;-76
2024/01/05 02:13:37;;;;;;;0.40;0.40;;;;;;;4.08;100.00;94380.53;5095124;28;20195;-75
2024/01/05 02:16:05;;;;;;;0.73;0.73;;;;;;;4.32;100.00;94384.94;5094320;28;20211;-77
2024/01/05 02:18:33;;;;;;;0.30;0.30;;;;;;;4.17;100.00;94386.78;5090092;28;20703;-75
2024/01/05 02:21:02;;;;;;;0.20;0.20;;;;;;;4.04;100.00;94390.22;5088981;28;20202;-73
2024/01/05 02:23:31;;;;;;;0.50;0.50;;;;;;;4.05;100.00;94383.78;5094521;28;20264;-76
2024/01/05 02:26:00;;;;;;;3.67;2.00;;;;;;;3.97;100.00;94400.50;5094281;28;20237;-76
2024/01/05 02:28:27;;;;;;;3.22;1.67;;;;;;;3.59;100.00;94386.34;5083444;28;20217;-76
2024/01/05 02:30:55;;;;;;;0.77;0.77;;;;;;;3.73;100.00;94394.44;5094825;28;20282;-75
2024/01/05 02:33:22;;;;;;;2.80;1.88;;;;;;;3.73;100.00;94386.41;5094139;28;20224;-75
2024/01/05 02:35:50;;;;;;;3.80;1.83;;;;;;;3.86;100.00;94388.34;5094147;28;20204;-75
2024/01/05 02:38:16;;;;;;;2.15;1.58;;;;;;;3.93;100.00;94400.31;5088237;28;20233;-75
2024/01/05 02:40:45;;;;;;;3.20;1.98;;;;;;;3.71;100.00;94397.41;5094305;28;20206;-76
2024/01/05 02:43:11;;;;;;;2.75;2.00;;;;;;;3.66;100.00;94396.69;5093713;28;20222;-74
2024/01/05 02:45:38;;;;;;;5.00;2.08;;;;;;;3.85;100.00;94408.19;5094710;28;20214;-75
2024/01/05 02:48:06;;;;;;;3.85;2.42;;;;;;;3.86;100.00;94396.38;5093465;28;20206;-74
2024/01/05 02:50:33;;;;;;;3.17;1.88;;;;;;;3.76;100.00;94399.22;5094365;28;20202;-75
2024/01/05 02:53:00;;;;;;;3.90;1.92;;;;;;;3.93;100.00;94399.50;5094063;28;20198;-74
2024/01/05 02:55:27;;;;;;;6.22;2.45;;;;;;;3.94;100.00;94401.09;5084676;28;20203;-74
2024/01/05 02:57:55;;;;;;;0.30;0.30;;;;;;;3.85;100.00;94409.00;5088815;28;20206;-75
2024/01/05 03:00:22;;;;;;;0.30;0.30;;;;;;;3.63;100.00;94405.31;5085106;28;20202;-75
2024/01/05 03:02:48;;;;;;;0.20;0.20;;;;;;;3.50;100.00;94407.63;5086133;28;20605;-76
2024/01/05 03:05:15;;;;;;;0.93;0.73;;;;;;;3.80;100.00;94411.75;5086377;28;20207;-75
2024/01/05 03:07:43;;;;;;;0.93;0.55;;;;;;;3.91;100.00;94421.22;5082070;28;20214;-74
2024/01/05 03:10:10;;;;;;;3.20;2.25;;;;;;;3.75;100.00;94413.69;5086419;28;20245;-75
2024/01/05 03:12:36;;;;;;;8.07;2.05;;;;;;;3.90;100.00;94432.25;5085294;28;20659;-75
2024/01/05 03:15:06;;;;;;;0.25;0.25;;;;;;;3.77;100.00;94427.59;5085179;28;20206;-76
2024/01/05 03:17:32;;;;;;;0.20;0.20;;;;;;;3.86;100.00;94425.84;5086298;28;20282;-75
2024/01/05 03:20:00;;;;;;;0.20;0.20;;;;;;;4.03;100.00;94431.50;5087130;28;20542;-73
2024/01/05 03:22:27;;;;;;;0.30;0.30;;;;;;;3.75;100.00;94430.56;5086143;28;20198;-76
2024/01/05 03:24:54;;;;;;;0.20;0.20;;;;;;;3.90;100.00;94438.41;5081669;28;20620;-74
2024/01/05 03:27:21;;;;;;;0.65;0.63;;;;;;;3.95;100.00;94445.56;5083876;28;20198;-74
2024/01/05 03:29:47;;;;;;;0.20;0.20;;;;;;;4.00;100.00;94448.16;5085720;28;20215;-74
2024/01/05 03:32:16;;;;;;;0.50;0.50;;;;;;;3.73;100.00;94453.38;5083265;28;20202;-75
2024/01/05 03:34:42;;;;;;;0.80;0.55;;;;;;;3.74;100.00;94454.97;5084733;28;20203;-74
2024/01/05 03:37:09;;;;;;;0.20;0.20;;;;;;;3.81;100.00;94456.22;5086054;28;20199;-73
2024/01/05 03:39:36;;;;;;;0.30;0.30;;;;;;;3.74;100.00;94460.31;5086691;28;20206;-74
2024/01/05 03:42:03;;;;;;;0.30;0.30;;;;;;;3.78;100.00;94466.69;5085702;28;20294;-74
2024/01/05 03:44:30;;;;;;;0.30;0.30;;;;;;;3.98;100.00;94471.75;5084570;28;20599;-74
2024/01/05 03:46:57;;;;;;;3.33;0.85;;;;;;;3.69;100.00;94489.88;5086598;28;20206;-74
2024/01/05 03:49:26;;;;;;;0.50;0.50;;;;;;;3.91;100.00;94465.97;5086381;28;20229;-75
2024/01/05 03:51:52;;;;;;;0.20;0.20;;;;;;;4.06;100.00;94478.38;5084280;28;20215;-75
2024/01/05 03:54:19;;;;;;;0.20;0.20;;;;;;;4.13;100.00;94474.22;5086737;28;20669;-76
2024/01/05 03:56:47;;;;;;;0.30;0.30;;;;;;;3.87;100.00;94470.31;5087742;28;20209;-76
2024/01/05 03:59:14;;;;;;;0.20;0.20;;;;;;;3.95;100.00;94472.38;5084860;28;20207;-75
2024/01/05 04:01:44;;;;;;;0.20;0.20;;;;;;;3.73;100.00;94470.22;5087232;28;20211;-75
2024/01/05 04:04:11;;;;;;;0.85;0.80;;;;;;;3.84;100.00;94470.88;5086379;28;20223;-74
2024/01/05 04:06:40;;;;;;;0.32;0.32;;;;;;;3.91;100.00;94474.81;5087527;28;20232;-75
2024/01/05 04:09:09;;;;;;;2.10;1.30;;;;;;;3.94;100.00;94481.50;5087389;28;20555;-74
2024/01/05 04:11:37;;;;;;;3.03;2.28;;;;;;;3.97;100.00;94483.56;5088425;28;20234;-75
2024/01/05 04:14:04;;;;;;;3.53;1.85;;;;;;;3.90;100.00;94488.50;5092137;28;20198;-74
2024/01/05 04:16:30;;;;;;;2.90;1.70;;;;;;;4.42;100.00;94492.03;5085846;28;20210;-77
2024/01/05 04:18:57;;;;;;;7.55;1.63;;;;;;;8.82;100.00;94461.00;5090314;28;20206;-76
2024/01/05 04:21:25;;;;;;;3.35;1.92;;;;;;;7.29;100.00;94466.63;5086468;28;20241;-77
2024/01/05 04:23:55;;;;;;;0.30;0.30;;;;;;;6.78;100.00;94471.41;5090958;28;20588;-77
2024/01/05 04:26:22;;;;;;;0.20;0.20;;;;;;;6.59;100.00;94478.09;5084310;28;20276;-76
2024/01/05 04:28:49;;;;;;;0.30;0.30;;;;;;;5.56;100.00;94481.41;5092295;28;20661;-76
2024/01/05 04:31:16;;;;;;;1.65;1.05;;;;;;;4.82;100.00;94485.19;5091974;28;20640;-76
2024/01/05 04:33:43;;;;;;;2.60;0.60;;;;;;;4.50;100.00;94502.09;5091421;28;20225;-75
2024/01/05 04:36:10;;;;;;;0.40;0.40;;;;;;;4.28;100.00;94503.50;5089613;28;20279;-75
2024/01/05 04:38:37;;;;;;;0.30;0.30;;;;;;;4.15;100.00;94503.44;5086465;28;20297;-76
2024/01/05 04:41:06;;;;;;;0.20;0.20;;;;;;;3.98;100.00;94511.97;5079291;28;20202;-76
2024/01/05 04:43:33;;;;;;;2.78;1.13;;;;;;;3.79;100.00;94521.88;5084972;28;20230;-76
2024/01/05 04:46:00;;;;;;;0.20;0.20;;;;;;;3.83;100.00;94517.50;5084134;28;20226;-75
2024/01/05 04:48:27;;;;;;;0.20;0.20;;;;;;;3.84;100.00;94519.91;5085620;28;20202;-75
2024/01/05 04:50:54;;;;;;;0.60;0.60;;;;;;;3.81;100.00;94520.50;5086194;28;20205;-76
2024/01/05 04:53:21;;;;;;;0.32;0.32;;;;;;;3.83;100.00;94520.19;5086354;28;20194;-77
2024/01/05 04:55:48;;;;;;;0.20;0.20;;;;;;;3.99;100.00;94526.94;5086843;28;20570;-75
2024/01/05 04:58:16;;;;;;;0.20;0.20;;;;;;;3.86;100.00;94522.31;5085405;28;20638;-76
2024/01/05 05:00:43;;;;;;;0.82;0.82;;;;;;;3.72;100.00;94530.25;5092775;28;20225;-75
2024/01/05 05:03:11;;;;;;;0.20;0.20;;;;;;;3.67;100.00;94526.84;5084096;28;20203;-75
2024/01/05 05:05:37;;;;;;;0.20;0.20;;;;;;;3.75;100.00;94540.41;5092327;28;20255;-76
2024/01/05 05:08:05;;;;;;;0.10;0.10;;;;;;;3.63;100.00;94544.56;5090653;28;20209;-75
2024/01/05 05:10:32;;;;;;;0.75;0.75;;;;;;;3.65;100.00;94542.41;5090824;28;20233;-75
2024/01/05 05:12:59;;;;;;;0.35;0.35;;;;;;;3.71;100.00;94547.41;5080557;28;20253;-74
2024/01/05 05:15:27;;;;;;;0.70;0.70;;;;;;;3.54;100.00;94558.59;5091779;28;20573;-75
2024/01/05 05:17:54;;;;;;;0.30;0.30;;;;;;;3.64;100.00;94552.31;5091705;28;20214;-76
2024/01/05 05:20:21;;;;;;;0.70;0.70;;;;;;;3.68;100.00;94564.06;5092025;28;20194;-76
2024/01/05 05:22:48;;;;;;;0.30;0.30;;;;;;;3.72;100.00;94558.91;5091450;28;20627;-75
2024/01/05 05:25:15;;;;;;;0.20;0.20;;;;;;;3.68;100.00;94563.25;5091803;28;20325;-78
2024/01/05 05:27:42;;;;;;;0.20;0.20;;;;;;;3.72;100.00;94554.34;5090917;28;20198;-76
2024/01/05 05:30:10;;;;;;;0.20;0.20;;;;;;;3.79;100.00;94559.38;5090844;28;20221;-76
2024/01/05 05:32:38;;;;;;;0.77;0.63;;;;;;;3.82;100.00;94564.16;5091594;28;20281;-76
2024/01/05 05:35:06;;;;;;;0.20;0.20;;;;;;;3.79;100.00;94556.69;5091944;28;20267;-76
2024/01/05 05:37:33;;;;;;;0.22;0.22;;;;;;;3.75;100.00;94569.88;5091660;28;20209;-76
2024/01/05 05:39:59;;;;;;;1.48;1.17;;;;;;;3.71;100.00;94562.66;5091623;28;20618;-76
2024/01/05 05:42:26;;;;;;;0.20;0.20;;;;;;;3.84;100.00;94561.97;5091154;28;20221;-75
2024/01/05 05:44:53;;;;;;;0.63;0.63;;;;;;;3.87;100.00;94566.78;5091322;28;20314;-75
2024/01/05 05:47:20;;;;;;;0.30;0.30;;;;;;;3.85;100.00;94560.91;5094804;28;20213;-75
2024/01/05 05:49:49;;;;;;;4.03;2.08;;;;;;;3.85;100.00;94579.66;5095236;28;20207;-75
2024/01/05 05:52:16;;;;;;;0.20;0.20;;;;;;;3.85;100.00;94572.41;5095626;28;20206;-75
2024/01/05 05:54:43;;;;;;;4.18;1.73;;;;;;;3.80;100.00;94585.09;5084843;28;20230;-75
2024/01/05 05:57:12;;;;;;;3.65;1.80;;;;;;;3.81;100.00;94584.81;5095636;28;20206;-76
2024/01/05 05:59:39;;;;;;;4.60;2.10;;;;;;;3.88;100.00;94582.56;5093776;28;20198;-76
2024/01/05 06:02:06;;;;;;;8.80;3.92;;;;;;;4.01;100.00;94582.94;5095027;28;20206;-76
2024/01/05 06:04:33;;;;;;;8.88;3.30;;;;;;;4.06;100.00;94581.00;5083917;28;20227;-75
2024/01/05 06:07:01;;;;;;;4.03;2.17;;;;;;;4.06;100.00;94591.72;5094472;28;20249;-77
2024/01/05 06:09:28;;;;;;;1.20;1.10;;;;;;;4.12;100.00;94582.53;5094799;28;20210;-76
2024/01/05 06:11:55;;;;;;;0.20;0.20;;;;;;;3.97;100.00;94588.06;5094451;28;20237;-76
2024/01/05 06:14:22;;;;;;;0.75;0.73;;;;;;;4.09;100.00;94577.75;5094990;28;20199;-76
2024/01/05 06:16:49;;;;;;;0.47;0.47;;;;;;;4.48;100.00;94582.84;5094932;28;20730;-76
2024/01/05 06:19:16;;;;;;;0.20;0.20;;;;;;;4.94;100.00;94587.50;5090918;28;20644;-75
2024/01/05 06:21:43;;;;;;;0.20;0.20;;;;;;;5.51;100.00;94583.56;5087943;28;20365;-75
2024/01/05 06:24:11;;;;;;;0.20;0.20;;;;;;;5.63;100.00;94573.13;5094304;28;20264;-76
2024/01/05 06:26:38;;;;;;;0.30;0.30;;;;;;;5.95;100.00;94576.88;5081134;28;20294;-75
2024/01/05 06:29:05;;;;;;;0.40;0.40;;;;;;;6.25;100.00;94587.00;5094032;28;20221;-75
2024/01/05 06:31:32;;;;;;;0.55;0.40;;;;;;;6.52;100.00;94591.53;5084393;28;20213;-77
2024/01/05 06:33:59;;;;;;;0.20;0.20;;;;;;;6.62;100.00;94601.28;5087580;28;20205;-76
2024/01/05 06:36:26;;;;;;;0.68;0.68;;;;;;;6.65;100.00;94584.53;5088120;28;20206;-76
2024/01/05 06:38:53;;;;;;;0.60;0.60;;;;;;;6.53;100.00;94597.72;5094353;28;20211;-76
2024/01/05 06:41:21;;;;;;;0.30;0.30;;;;;;;6.15;100.00;94597.94;5092877;28;20712;-76
2024/01/05 06:43:48;;;;;;;0.30;0.30;;;;;;;5.80;100.00;94598.63;5091391;28;20206;-76
2024/01/05 06:46:15;;;;;;;0.57;0.57;;;;;;;5.75;100.00;94599.53;5090752;28;20210;-75
2024/01/05 06:48:42;;;;;;;0.25;0.25;;;;;;;5.58;100.00;94605.50;5083666;28;20210;-76
2024/01/05 06:51:09;;;;;;;0.20;0.20;;;;;;;5.49;100.00;94596.50;5094244;28;20208;-76
2024/01/05 06:53:36;;;;;;;0.20;0.20;;;;;;;5.50;100.00;94602.69;5087562;28;20226;-76
2024/01/05 06:56:04;;;;;;;0.30;0.30;;;;;;;5.58;100.00;94600.13;5085766;28;20582;-77
2024/01/05 06:58:34;;;;;;;0.43;0.43;;;;;;;5.56;100.00;94596.13;5087148;28;20207;-77
2024/01/05 07:01:01;;;;;;;0.73;0.73;;;;;;;5.61;100.00;94583.38;5084799;28;20293;-76
2024/01/05 07:03:28;;;;;;;0.20;0.20;;;;;;;5.71;100.00;94591.28;5082790;28;20198;-77
2024/01/05 07:05:55;;;;;;;1.38;0.35;;;;;;;5.89;100.00;94594.19;5088411;28;20631;-77
2024/01/05 07:08:22;;;;;;;0.20;0.20;;;;;;;5.93;100.00;94600.56;5087045;28;20210;-76
2024/01/05 07:10:49;;;;;;;0.20;0.20;;;;;;;6.11;100.00;94588.13;5091612;28;20238;-74
2024/01/05 07:13:16;;;;;;;0.40;0.40;;;;;;;6.20;100.00;94592.47;5085044;28;20252;-77
2024/01/05 07:15:44;;;;;;;0.20;0.20;;;;;;;6.23;100.00;94591.88;5082554;28;20313;-77
2024/01/05 07:18:11;;;;;;;0.20;0.20;;;;;;;6.33;100.00;94588.19;5091657;28;20198;-77
2024/01/05 07:20:38;;;;;;;1.10;0.75;;;;;;;6.10;100.00;94581.16;5090167;28;20221;-77
2024/01/05 07:23:05;;;;;;;0.25;0.25;;;;;;;6.31;100.00;94591.16;5088937;28;20219;-79
2024/01/05 07:25:33;;;;;;;0.28;0.28;;;;;;;6.42;100.00;94586.38;5073381;28;20335;-78
2024/01/05 07:28:00;;;;;;;0.20;0.20;;;;;;;6.54;100.00;94593.94;5081139;28;20203;-77
2024/01/05 07:30:26;;;;;;;0.20;0.20;;;;;;;6.61;100.00;94586.22;5092978;28;20210;-77
2024/01/05 07:32:55;;;;;;;3.03;0.93;;;;;;;6.47;100.00;94588.16;5092064;28;20216;-75
2024/01/05 07:35:21;;;;;;;1.65;1.27;;;;;;;6.52;100.00;94598.81;5096898;28;20565;-77
2024/01/05 07:37:48;;;;;;;0.47;0.47;;;;;;;6.62;100.00;94598.59;5103009;28;20214;-77
2024/01/05 07:40:16;;;;;;;0.30;0.30;;;;;;;6.77;100.00;94595.56;5099265;28;20211;-75
2024/01/05 07:42:43;;;;;;;0.70;0.68;;;;;;;6.94;100.00;94590.31;5074629;28;20217;-75
2024/01/05 07:45:10;;;;;;;0.70;0.70;;;;;;;7.08;100.00;94595.66;5087202;28;20252;-76
2024/01/05 07:47:37;;;;;;;3.30;0.40;;;;;;;7.10;100.00;94593.44;5092536;28;20194;-75
2024/01/05 07:50:06;;;;;;;0.20;0.20;;;;;;;7.29;100.00;94604.00;5092976;28;20218;-76
2024/01/05 07:52:33;;;;;;;0.38;0.38;;;;;;;7.54;100.00;94591.78;5092898;28;20761;-75
2024/01/05 07:55:00;;;;;;;0.20;0.20;;;;;;;7.70;100.00;94593.78;5075286;28;20553;-75
2024/01/05 07:57:27;;;;;;;0.15;0.15;;;;;;;7.67;100.00;94589.00;5092760;28;20198;-75
2024/01/05 07:59:54;;;;;;;0.20;0.20;;;;;;;7.89;100.00;94600.88;5092274;28;20263;-75
2024/01/05 08:02:20;;;;;;;0.38;0.38;;;;;;;7.87;100.00;94600.38;5084313;28;20293;-75
2024/01/05 08:04:47;;;;;;;0.30;0.30;;;;;;;8.17;99.29;94586.06;5076188;28;20254;-75
2024/01/05 08:07:17;;;;;;;0.20;0.20;;;;;;;8.23;97.48;94595.56;5092682;28;20549;-74
2024/01/05 08:09:44;;;;;;;0.20;0.20;;;;;;;8.36;97.44;94594.69;5092023;28;20213;-76
2024/01/05 08:12:11;;;;;;;1.27;0.70;;;;;;;8.21;96.15;94595.09;5092891;28;20286;-76
2024/01/05 08:14:38;;;;;;;0.35;0.30;;;;;;;8.20;96.75;94601.59;5089258;28;20206;-76
2024/01/05 08:17:05;;;;;;;0.28;0.28;;;;;;;8.43;95.42;94586.13;5092442;28;20259;-75
2024/01/05 08:19:32;;;;;;;0.20;0.20;;;;;;;8.33;96.16;94595.34;5091936;28;20210;-76
2024/01/05 08:21:59;;;;;;;0.43;0.43;;;;;;;8.54;94.92;94600.91;5092159;28;20251;-75
2024/01/05 08:24:28;;;;;;;0.93;0.88;;;;;;;8.67;95.14;94604.59;5083851;28;20225;-77
2024/01/05 08:26:55;;;;;;;1.17;0.65;;;;;;;8.66;94.07;94592.19;5092667;28;20244;-77
2024/01/05 08:29:22;;;;;;;0.20;0.20;;;;;;;8.47;92.61;94601.38;5092078;28;20213;-77
2024/01/05 08:31:49;;;;;;;0.40;0.30;;;;;;;8.40;94.56;94614.56;5092474;28;20222;-78
2024/01/05 08:34:16;;;;;;;0.52;0.52;;;;;;;8.57;93.63;94610.31;5089643;28;20574;-77
2024/01/05 08:36:44;;;;;;;0.20;0.20;;;;;;;8.81;92.46;94610.66;5092279;28;20213;-77
2024/01/05 08:39:10;;;;;;;1.00;0.93;;;;;;;9.00;90.40;94616.56;5091737;28;20198;-76
2024/01/05 08:41:39;;;;;;;3.17;1.33;;;;;;;9.04;89.97;94614.78;5091707;28;20210;-75
2024/01/05 08:44:06;;;;;;;0.65;0.63;;;;;;;9.24;89.60;94608.75;5087886;28;20236;-75
2024/01/05 08:46:33;;;;;;;0.30;0.30;;;;;;;9.15;90.07;94610.69;5091413;28;20449;-77
2024/01/05 08:49:00;;;;;;;0.22;0.22;;;;;;;9.43;90.23;94615.75;5091390;28;20233;-77
2024/01/05 08:52:04;;;;;;;0.20;0.20;;;;;;;9.69;87.90;94613.78;5091565;28;20209;-76
2024/01/05 08:54:31;;;;;;;0.63;0.63;;;;;;;9.56;86.42;94593.91;5081254;28;20668;-76
2024/01/05 08:56:59;;;;;;;6.13;1.75;;;;;;;9.82;86.58;94604.66;5091609;28;20209;-75
2024/01/05 08:59:26;;;;;;;0.28;0.28;;;;;;;9.57;86.41;94602.81;5092051;28;20233;-77
2024/01/05 09:01:53;;;;;;;0.20;0.20;;;;;;;9.48;87.04;94593.91;5091338;28;20300;-77
2024/01/05 09:04:20;;;;;;;0.20;0.20;;;;;;;9.46;86.81;94588.03;5072676;28;20209;-75
2024/01/05 09:06:47;;;;;;;1.20;1.10;;;;;;;9.55;85.85;94594.25;5089752;28;20205;-76
2024/01/05 09:09:14;;;;;;;0.35;0.35;;;;;;;9.88;87.65;94597.16;5089855;28;20643;-75
2024/01/05 09:11:41;;;;;;;0.20;0.20;;;;;;;10.15;85.74;94593.22;5090566;28;20245;-76
2024/01/05 09:14:09;;;;;;;1.13;0.90;;;;;;;10.19;85.24;94588.78;5080836;28;20551;-78
2024/01/05 09:16:37;;;;;;;0.38;0.38;;;;;;;10.36;83.58;94579.81;5088401;28;20206;-76
2024/01/05 09:19:04;;;;;;;0.30;0.30;;;;;;;10.57;82.87;94588.75;5091427;28;20210;-77
2024/01/05 09:21:31;;;;;;;2.03;1.42;;;;;;;10.38;81.69;94591.09;5092593;28;20213;-76
2024/01/05 09:23:58;;;;;;;2.47;0.77;;;;;;;10.29;80.35;94580.28;5086568;28;20304;-78
2024/01/05 09:26:25;;;;;;;0.32;0.32;;;;;;;10.23;81.42;94578.91;5094133;28;20364;-78
2024/01/05 09:28:52;;;;;;;0.30;0.30;;;;;;;9.72;85.50;94583.34;5096239;28;20213;-78
2024/01/05 09:31:20;;;;;;;1.65;1.55;;;;;;;10.06;84.39;94584.38;5095476;28;20214;-78
2024/01/05 09:33:49;;;;;;;0.90;0.63;;;;;;;9.96;83.29;94593.66;5089135;28;20604;-77
2024/01/05 09:36:16;;;;;;;0.57;0.50;;;;;;;9.77;82.14;94583.19;5085365;28;20202;-77
2024/01/05 09:38:43;;;;;;;1.85;0.52;;;;;;;9.72;83.43;94596.88;5095376;28;20292;-78
2024/01/05 09:41:13;;;;;;;0.40;0.40;;;;;;;9.48;84.75;94597.41;5095334;28;20210;-76
2024/01/05 09:43:41;;;;;;;0.75;0.65;;;;;;;9.86;84.11;94597.47;5091446;28;20243;-77
2024/01/05 09:46:09;;;;;;;0.30;0.30;;;;;;;9.89;82.90;94596.84;5094793;28;20240;-75
2024/01/05 09:48:37;;;;;;;0.38;0.38;;;;;;;10.00;82.67;94591.84;5095315;28;20214;-76
2024/01/05 09:51:07;;;;;;;0.30;0.30;;;;;;;9.85;82.46;94586.97;5095083;28;20202;-76
2024/01/05 09:53:35;;;;;;;0.52;0.50;;;;;;;9.64;83.67;94603.13;5088707;28;20206;-75
2024/01/05 09:56:03;;;;;;;3.17;1.70;;;;;;;9.76;83.59;94600.53;5083441;28;20226;-73
2024/01/05 09:58:30;;;;;;;0.40;0.40;;;;;;;10.59;83.95;94587.31;5095128;28;20669;-74
2024/01/05 10:01:01;;;;;;;0.47;0.47;;;;;;;10.50;82.13;94589.28;5088256;28;20211;-74
2024/01/05 10:03:29;;;;;;;0.50;0.50;;;;;;;10.20;81.29;94582.25;5090983;28;20201;-74
2024/01/05 10:05:59;;;;;;;0.40;0.40;;;;;;;10.40;83.50;94583.41;5093066;28;20236;-74
2024/01/05 10:08:26;;;;;;;0.30;0.30;;;;;;;10.33;81.44;94575.81;5094275;28;20305;-75
2024/01/05 10:10:56;;;;;;;0.45;0.45;;;;;;;10.11;81.93;94576.06;5094610;28;20586;-74
2024/01/05 10:13:23;;;;;;;2.83;0.68;;;;;;;10.01;84.01;94565.59;5092216;28;20279;-74
2024/01/05 10:15:55;;;;;;;0.70;0.70;;;;;;;11.00;84.90;94558.63;5094539;28;20214;-74
2024/01/05 10:18:23;;;;;;;0.63;0.63;;;;;;;11.34;79.99;94558.31;5094224;28;20238;-76
2024/01/05 10:20:50;;;;;;;1.52;1.42;;;;;;;11.14;78.77;94552.94;5094431;28;20570;-76
2024/01/05 10:23:19;;;;;;;0.63;0.63;;;;;;;11.16;79.23;94561.53;5090254;28;20217;-77
2024/01/05 10:25:47;;;;;;;1.25;1.02;;;;;;;11.22;78.50;94555.56;5085788;28;20230;-76
2024/01/05 10:28:23;;;;;;;0.77;0.77;;;;;;;11.50;78.15;94549.53;5092249;28;20264;-77
2024/01/05 10:30:52;;;;;;;1.08;1.08;;;;;;;11.44;75.95;94540.06;5093737;28;20194;-76
2024/01/05 10:33:19;;;;;;;0.38;0.38;;;;;;;11.55;76.66;94541.22;5087910;28;20241;-76
2024/01/05 10:35:46;;;;;;;0.82;0.57;;;;;;;11.50;77.70;94530.56;5068973;28;20206;-76
2024/01/05 10:38:14;;;;;;;1.48;1.08;;;;;;;11.42;76.44;94536.88;5092907;28;20203;-76
2024/01/05 10:40:43;;;;;;;0.52;0.52;;;;;;;11.16;75.37;94532.50;5095197;28;20202;-76
2024/01/05 10:43:12;;;;;;;0.55;0.55;;;;;;;11.33;76.55;94535.06;5092724;28;20300;-77
2024/01/05 10:52:54;;;;;;;1.45;1.35;;;;;;;10.98;72.65;94528.34;5041223;28;20715;-75
2024/01/05 10:57:48;;;;;;;0.20;0.20;;;;;;;11.11;72.49;94521.84;5039360;28;20543;-74
2024/01/05 11:00:16;;;;;;;0.90;0.90;;;;;;;11.36;72.04;94520.81;5094239;28;20885;-74
2024/01/05 11:02:50;;;;;;;0.30;0.30;;;;;;;11.66;71.68;94518.72;5092478;28;20207;-74
2024/01/05 11:05:20;;;;;;;0.88;0.88;;;;;;;11.86;70.29;94517.09;5091154;28;20218;-74
2024/01/05 11:07:51;;;;;;;2.60;1.90;;;;;;;11.61;72.51;94507.31;5082141;28;20211;-74
2024/01/05 11:10:28;;;;;;;0.32;0.32;;;;;;;11.22;73.01;94506.75;5092821;28;20237;-74
2024/01/05 11:13:30;;;;;;;0.32;0.32;;;;;;;11.25;74.01;94506.09;5092047;28;20726;-76
2024/01/05 11:16:20;;;;;;;2.28;1.65;;;;;;;11.06;72.23;94503.09;5085480;28;20218;-76
2024/01/05 11:19:05;;;;;;;0.85;0.82;;;;;;;11.40;72.27;94497.31;5088974;28;20575;-75
2024/01/05 11:21:44;;;;;;;1.15;1.05;;;;;;;11.80;71.51;94493.22;5092249;28;20300;-75
2024/01/05 11:24:13;;;;;;;1.40;1.05;;;;;;;11.64;69.71;94496.56;5072182;28;20225;-75
2024/01/05 11:26:42;;;;;;;1.20;0.60;;;;;;;11.51;70.14;94496.88;5092696;28;20230;-74
2024/01/05 11:29:13;;;;;;;0.20;0.20;;;;;;;11.63;69.46;94496.91;5093034;28;20584;-72
2024/01/05 11:31:57;;;;;;;0.30;0.30;;;;;;;11.75;69.60;94486.09;5092338;28;20283;-77
2024/01/05 11:34:34;;;;;;;1.55;0.85;;;;;;;12.01;69.47;94485.78;5085413;28;20198;-76
2024/01/05 11:37:02;;;;;;;0.43;0.43;;;;;;;12.27;67.70;94486.22;5091989;28;20209;-75
2024/01/05 11:39:45;;;;;;;0.95;0.95;;;;;;;12.24;67.53;94486.09;5092640;28;20511;-76
2024/01/05 11:42:28;;;;;;;0.73;0.70;;;;;;;12.04;67.63;94477.72;5092705;28;20271;-73
2024/01/05 11:44:57;;;;;;;1.52;1.42;;;;;;;11.97;68.27;94474.00;5532383;22;20425;-72
2024/01/05 11:50:24;;;;;;;7.32;0.75;;;;;;;11.99;67.59;94474.47;5021758;22;1841037;-81